Time;durP1;ratioP1;P1;durP2;ratioP2;P2;SDS_P1;SDS_P2;PMS_P1;PMS_P2;Temp;Humidity;BMP_temperature;BMP_pressure;BME280_temperature;BME280_humidity;BME280_pressure;Samples;Min_cycle;Max_cycle;Signal;HPM_P1;HPM_P2
2021/11/24 00:01:54;0.00;0.00;0.62;0.00;0.00;0.62;2.03;1.30;;;22.30;29.50;;;;;;2245336;61;20401;-66
2021/11/24 00:04:39;0.00;0.00;0.62;0.00;0.00;0.62;1.70;1.30;;;22.30;29.50;;;;;;2245881;61;20370;-67
2021/11/24 00:07:23;0.00;0.00;0.62;0.00;0.00;0.62;1.80;1.30;;;22.40;29.60;;;;;;2245935;61;20361;-66
2021/11/24 00:10:09;0.00;0.00;0.62;0.00;0.00;0.62;1.63;1.13;;;22.40;29.60;;;;;;2245557;61;20449;-65
2021/11/24 00:12:54;0.00;0.00;0.62;0.00;0.00;0.62;1.90;1.50;;;22.40;29.60;;;;;;2245830;61;20365;-66
2021/11/24 00:15:40;0.00;0.00;0.62;0.00;0.00;0.62;1.73;1.30;;;22.40;29.60;;;;;;2245564;61;20438;-67
2021/11/24 00:18:24;0.00;0.00;0.62;0.00;0.00;0.62;2.63;1.40;;;22.40;29.60;;;;;;2245731;61;20603;-67
2021/11/24 00:21:11;0.00;0.00;0.62;0.00;0.00;0.62;2.00;1.13;;;22.40;29.60;;;;;;2245790;61;20608;-67
2021/11/24 00:23:55;0.00;0.00;0.62;0.00;0.00;0.62;1.77;1.30;;;22.40;29.60;;;;;;2245109;61;20365;-66
2021/11/24 00:26:40;0.00;0.00;0.62;0.00;0.00;0.62;1.37;0.97;;;22.40;29.60;;;;;;2245666;61;20434;-66
2021/11/24 00:29:25;0.00;0.00;0.62;0.00;0.00;0.62;2.87;1.40;;;22.40;29.60;;;;;;2245691;61;20572;-63
2021/11/24 00:32:11;0.00;0.00;0.62;0.00;0.00;0.62;1.50;1.00;;;22.40;29.60;;;;;;2245631;61;20361;-64
2021/11/24 00:34:56;0.00;0.00;0.62;0.00;0.00;0.62;2.23;1.20;;;22.40;29.70;;;;;;2245658;61;20388;-63
2021/11/24 00:37:42;0.00;0.00;0.62;0.00;0.00;0.62;2.17;1.20;;;22.40;29.70;;;;;;2244970;61;20365;-61
2021/11/24 00:40:27;0.00;0.00;0.62;0.00;0.00;0.62;4.50;1.30;;;22.40;29.70;;;;;;2245165;61;20768;-62
2021/11/24 00:43:12;0.00;0.00;0.62;0.00;0.00;0.62;1.70;1.10;;;22.40;29.70;;;;;;2245736;61;20380;-62
2021/11/24 00:45:57;0.00;0.00;0.62;0.00;0.00;0.62;1.60;1.40;;;22.40;29.70;;;;;;2245002;61;20361;-64
2021/11/24 00:48:43;0.00;0.00;0.62;0.00;0.00;0.62;1.60;1.20;;;22.40;29.70;;;;;;2245938;61;20362;-64
2021/11/24 00:51:28;0.00;0.00;0.62;0.00;0.00;0.62;2.27;1.20;;;22.50;29.80;;;;;;2246096;61;20405;-64
2021/11/24 00:54:12;0.00;0.00;0.62;0.00;0.00;0.62;3.63;1.00;;;22.50;29.80;;;;;;2245284;61;20369;-62
2021/11/24 00:56:57;0.00;0.00;0.62;0.00;0.00;0.62;2.70;1.50;;;22.40;29.70;;;;;;2245778;61;20446;-64
2021/11/24 00:59:42;0.00;0.00;0.62;0.00;0.00;0.62;1.50;1.10;;;22.40;29.70;;;;;;2245130;61;20576;-63
2021/11/24 01:02:27;0.00;0.00;0.62;0.00;0.00;0.62;2.23;1.07;;;22.50;29.80;;;;;;2245640;61;20410;-65
2021/11/24 01:05:14;0.00;0.00;0.62;0.00;0.00;0.62;1.40;1.10;;;22.50;29.80;;;;;;2245859;61;20361;-66
2021/11/24 01:07:58;0.00;0.00;0.62;0.00;0.00;0.62;1.80;1.23;;;22.50;29.80;;;;;;2244746;61;20811;-64
2021/11/24 01:10:44;0.00;0.00;0.62;0.00;0.00;0.62;2.27;1.53;;;22.50;29.80;;;;;;2245908;61;20421;-66
2021/11/24 01:13:30;0.00;0.00;0.62;0.00;0.00;0.62;2.17;1.40;;;22.50;29.70;;;;;;2245901;61;20361;-64
2021/11/24 01:16:15;0.00;0.00;0.62;0.00;0.00;0.62;2.60;1.80;;;22.50;29.70;;;;;;2245352;61;20403;-65
2021/11/24 01:19:00;0.00;0.00;0.62;0.00;0.00;0.62;4.67;2.77;;;22.50;29.70;;;;;;2245549;61;20580;-66
2021/11/24 01:21:46;0.00;0.00;0.62;0.00;0.00;0.62;4.47;3.17;;;22.50;29.60;;;;;;2245042;61;20417;-65
2021/11/24 01:24:31;0.00;0.00;0.62;0.00;0.00;0.62;4.83;3.43;;;22.50;29.60;;;;;;2245592;61;20365;-65
2021/11/24 01:27:16;0.00;0.00;0.62;0.00;0.00;0.62;5.10;4.03;;;22.50;29.60;;;;;;2245544;61;20358;-65
2021/11/24 01:30:01;0.00;0.00;0.62;0.00;0.00;0.62;5.00;4.43;;;22.40;29.50;;;;;;2245090;61;20384;-64
2021/11/24 01:32:45;0.00;0.00;0.62;0.00;0.00;0.62;4.97;4.23;;;22.40;29.40;;;;;;2245955;61;20400;-66
2021/11/24 01:35:32;0.00;0.00;0.62;0.00;0.00;0.62;5.20;3.73;;;22.40;29.40;;;;;;2245465;61;20369;-66
2021/11/24 01:38:19;0.00;0.00;0.62;0.00;0.00;0.62;5.50;4.23;;;22.40;29.40;;;;;;2244918;61;20458;-67
2021/11/24 01:41:04;0.00;0.00;0.62;0.00;0.00;0.62;4.03;3.57;;;22.40;29.50;;;;;;2245527;61;20388;-67
2021/11/24 01:43:49;0.00;0.00;0.62;0.00;0.00;0.62;4.10;3.70;;;22.40;29.40;;;;;;2245048;61;20358;-66
2021/11/24 01:46:33;0.00;0.00;0.62;0.00;0.00;0.62;4.50;4.00;;;22.40;29.40;;;;;;2245517;61;20450;-66
2021/11/24 01:49:18;0.00;0.00;0.62;0.00;0.00;0.62;3.80;3.40;;;22.40;29.40;;;;;;2245320;61;20401;-66
2021/11/24 01:52:04;0.00;0.00;0.62;0.00;0.00;0.62;4.13;3.23;;;22.40;29.40;;;;;;2245137;61;20440;-66
2021/11/24 01:54:50;0.00;0.00;0.62;0.00;0.00;0.62;6.03;4.40;;;22.40;29.40;;;;;;2245578;61;20369;-66
2021/11/24 01:57:35;0.00;0.00;0.62;0.00;0.00;0.62;5.70;4.20;;;22.30;29.40;;;;;;2245513;61;20362;-66
2021/11/24 02:00:24;0.00;0.00;0.62;0.00;0.00;0.62;4.20;3.53;;;22.40;29.40;;;;;;2244649;61;20749;-66
2021/11/24 02:03:09;0.00;0.00;0.62;0.00;0.00;0.62;4.50;3.90;;;22.30;29.30;;;;;;2245405;61;20369;-66
2021/11/24 02:05:54;0.00;0.00;0.62;0.00;0.00;0.62;4.93;4.03;;;22.30;29.30;;;;;;2245339;61;20465;-67
2021/11/24 02:08:39;0.00;0.00;0.62;0.00;0.00;0.62;5.40;4.10;;;22.30;29.30;;;;;;2245234;61;20655;-66
2021/11/24 02:11:26;0.00;0.00;0.62;0.00;0.00;0.62;3.80;3.13;;;22.30;29.30;;;;;;2245374;61;20381;-66
2021/11/24 02:14:14;0.00;0.00;0.62;0.00;0.00;0.62;4.80;4.30;;;22.30;29.40;;;;;;2245224;61;20366;-66
2021/11/24 02:16:58;0.00;0.00;0.62;0.00;0.00;0.62;3.67;3.27;;;22.30;29.30;;;;;;2245422;61;20706;-65
2021/11/24 02:19:44;0.00;0.00;0.62;0.00;0.00;0.62;5.47;3.77;;;22.30;29.40;;;;;;2246050;61;20741;-66
2021/11/24 02:22:30;0.00;0.00;0.62;0.00;0.00;0.62;4.80;4.30;;;22.30;29.40;;;;;;2244989;61;20413;-66
2021/11/24 02:25:15;0.00;0.00;0.62;0.00;0.00;0.62;5.10;4.10;;;22.30;29.30;;;;;;2245015;61;20684;-66
2021/11/24 02:28:00;0.00;0.00;0.62;0.00;0.00;0.62;8.50;5.63;;;22.30;29.30;;;;;;2245033;61;20417;-66
2021/11/24 02:30:45;0.00;0.00;0.62;0.00;0.00;0.62;5.50;4.63;;;22.30;29.30;;;;;;2245230;61;20380;-66
2021/11/24 02:33:31;0.00;0.00;0.62;0.00;0.00;0.62;5.57;4.53;;;22.30;29.30;;;;;;2245349;61;20434;-66
2021/11/24 02:36:16;0.00;0.00;0.62;0.00;0.00;0.62;5.20;3.90;;;22.30;29.30;;;;;;2244721;61;20357;-66
2021/11/24 02:39:03;0.00;0.00;0.62;0.00;0.00;0.62;4.93;4.33;;;22.20;29.30;;;;;;2244838;61;20461;-66
2021/11/24 02:41:48;0.00;0.00;0.62;0.00;0.00;0.62;5.97;4.63;;;22.30;29.30;;;;;;2245395;61;20405;-66
2021/11/24 02:44:38;0.00;0.00;0.62;0.00;0.00;0.62;5.93;3.90;;;22.20;29.30;;;;;;2244639;61;20734;-66
2021/11/24 02:47:25;0.00;0.00;0.62;0.00;0.00;0.62;5.90;5.27;;;22.20;29.80;;;;;;2245266;61;20406;-66
2021/11/24 02:50:10;0.00;0.00;0.62;0.00;0.00;0.62;4.87;4.07;;;22.20;29.70;;;;;;2245293;61;20444;-66
2021/11/24 02:52:55;0.00;0.00;0.62;0.00;0.00;0.62;5.77;4.73;;;22.20;29.30;;;;;;2245231;61;20470;-66
2021/11/24 02:55:41;0.00;0.00;0.62;0.00;0.00;0.62;6.00;4.83;;;22.20;29.30;;;;;;2245339;61;20475;-67
2021/11/24 02:58:26;0.00;0.00;0.62;0.00;0.00;0.62;7.23;6.10;;;22.20;29.20;;;;;;2244967;61;20588;-66
2021/11/24 03:01:11;0.00;0.00;0.62;0.00;0.00;0.62;7.07;5.60;;;22.10;29.20;;;;;;2245280;61;20389;-66
2021/11/24 03:03:56;0.00;0.00;0.62;0.00;0.00;0.62;6.27;5.13;;;22.10;29.10;;;;;;2245483;61;20380;-66
2021/11/24 03:06:41;0.00;0.00;0.62;0.00;0.00;0.62;5.43;4.73;;;22.10;29.20;;;;;;2244550;61;20369;-66
2021/11/24 03:09:26;0.00;0.00;0.62;0.00;0.00;0.62;5.80;4.90;;;22.10;29.20;;;;;;2245218;61;20567;-66
2021/11/24 03:12:12;0.00;0.00;0.62;0.00;0.00;0.62;5.70;4.43;;;22.10;29.20;;;;;;2245530;61;20724;-66
2021/11/24 03:14:57;0.00;0.00;0.62;0.00;0.00;0.62;5.73;4.93;;;22.10;29.20;;;;;;2245135;61;20369;-66
2021/11/24 03:17:42;0.00;0.00;0.62;0.00;0.00;0.62;6.60;5.70;;;22.10;29.20;;;;;;2245384;61;20346;-65
2021/11/24 03:20:28;0.00;0.00;0.62;0.00;0.00;0.62;5.13;4.63;;;22.00;29.10;;;;;;2244791;61;20417;-66
2021/11/24 03:23:13;0.00;0.00;0.62;0.00;0.00;0.62;5.60;4.33;;;22.00;29.70;;;;;;2245213;61;20655;-66
2021/11/24 03:25:58;0.00;0.00;0.62;0.00;0.00;0.62;5.43;4.93;;;22.00;29.20;;;;;;2245215;61;20381;-66
2021/11/24 03:28:45;0.00;0.00;0.62;0.00;0.00;0.62;5.77;4.77;;;22.00;29.20;;;;;;2244557;61;20358;-66
2021/11/24 03:31:29;0.00;0.00;0.62;0.00;0.00;0.62;4.80;4.20;;;22.00;29.80;;;;;;2245595;61;20389;-65
2021/11/24 03:34:14;0.00;0.00;0.62;0.00;0.00;0.62;5.73;5.20;;;22.00;29.30;;;;;;2245607;61;20413;-67
2021/11/24 03:36:59;0.00;0.00;0.62;0.00;0.00;0.62;6.40;5.20;;;22.00;29.80;;;;;;2245556;61;20370;-65
2021/11/24 03:39:44;0.00;0.00;0.62;0.00;0.00;0.62;6.27;5.27;;;22.00;29.80;;;;;;2245752;61;20385;-65
2021/11/24 03:42:30;0.00;0.00;0.62;0.00;0.00;0.62;6.33;5.03;;;22.00;29.30;;;;;;2245414;61;20509;-66
2021/11/24 03:45:20;0.00;0.00;0.62;0.00;0.00;0.62;5.30;4.80;;;22.00;29.30;;;;;;2245857;61;20360;-66
2021/11/24 03:48:07;0.00;0.00;0.62;0.00;0.00;0.62;6.03;4.70;;;22.00;29.30;;;;;;2245871;61;20389;-66
2021/11/24 03:50:52;0.00;0.00;0.62;0.00;0.00;0.62;5.10;4.43;;;22.00;29.30;;;;;;2245203;61;20553;-66
2021/11/24 03:53:40;0.00;0.00;0.62;0.00;0.00;0.62;6.47;5.17;;;21.90;29.20;;;;;;2246112;61;20580;-66
2021/11/24 03:56:25;0.00;0.00;0.62;0.00;0.00;0.62;5.80;4.53;;;21.90;29.20;;;;;;2246308;61;20687;-66
2021/11/24 03:59:10;0.00;0.00;0.62;0.00;0.00;0.62;5.07;4.43;;;21.90;29.20;;;;;;2245260;61;20389;-67
2021/11/24 04:01:56;0.00;0.00;0.62;0.00;0.00;0.62;7.60;5.13;;;21.90;29.20;;;;;;2245781;61;20409;-66
2021/11/24 04:04:40;0.00;0.00;0.62;0.00;0.00;0.62;5.50;4.93;;;21.90;29.20;;;;;;2245474;61;20370;-66
2021/11/24 04:07:25;0.00;0.00;0.62;0.00;0.00;0.62;7.17;5.80;;;21.90;29.20;;;;;;2245668;61;20410;-66
2021/11/24 04:10:12;0.00;0.00;0.62;0.00;0.00;0.62;6.30;5.70;;;21.90;29.20;;;;;;2245627;61;20377;-66
2021/11/24 04:12:57;0.00;0.00;0.62;0.00;0.00;0.62;7.40;5.40;;;21.90;29.20;;;;;;2245388;61;20397;-66
2021/11/24 04:15:41;0.00;0.00;0.62;0.00;0.00;0.62;7.07;5.33;;;21.90;29.20;;;;;;2246037;61;20425;-66
2021/11/24 04:18:28;0.00;0.00;0.62;0.00;0.00;0.62;7.23;5.83;;;21.80;29.10;;;;;;2246083;61;20400;-66
2021/11/24 04:21:13;0.00;0.00;0.62;0.00;0.00;0.62;5.73;4.77;;;21.80;29.10;;;;;;2245296;61;20449;-66
2021/11/24 04:23:58;0.00;0.00;0.62;0.00;0.00;0.62;5.50;4.60;;;21.80;29.10;;;;;;2245841;61;20717;-66
2021/11/24 04:26:43;0.00;0.00;0.62;0.00;0.00;0.62;5.70;4.83;;;21.80;29.10;;;;;;2245397;61;20678;-66
2021/11/24 04:29:28;0.00;0.00;0.62;0.00;0.00;0.62;4.63;4.23;;;21.80;29.10;;;;;;2245513;61;20366;-66
2021/11/24 04:32:12;0.00;0.00;0.62;0.00;0.00;0.62;4.73;4.20;;;21.80;29.10;;;;;;2245840;61;20374;-66
2021/11/24 04:34:59;0.00;0.00;0.62;0.00;0.00;0.62;5.53;4.27;;;21.80;29.20;;;;;;2245299;61;20373;-66
2021/11/24 04:37:44;0.00;0.00;0.62;0.00;0.00;0.62;4.30;3.90;;;21.80;29.10;;;;;;2245516;61;20721;-67
2021/11/24 04:40:28;0.00;0.00;0.62;0.00;0.00;0.62;6.40;5.10;;;21.80;29.10;;;;;;2245670;61;20502;-66
2021/11/24 04:43:16;0.00;0.00;0.62;0.00;0.00;0.62;5.70;4.63;;;21.80;29.10;;;;;;2244997;61;20613;-67
2021/11/24 04:46:00;0.00;0.00;0.62;0.00;0.00;0.62;6.30;5.30;;;21.80;29.10;;;;;;2245856;61;20365;-68
2021/11/24 04:48:45;0.00;0.00;0.62;0.00;0.00;0.62;7.17;5.73;;;21.70;29.10;;;;;;2245424;61;20357;-66
2021/11/24 04:51:32;0.00;0.00;0.62;0.00;0.00;0.62;7.07;5.17;;;21.70;29.10;;;;;;2245683;61;20596;-68
2021/11/24 04:54:17;0.00;0.00;0.62;0.00;0.00;0.62;7.10;5.67;;;21.70;29.00;;;;;;2245789;61;20436;-67
2021/11/24 04:57:02;0.00;0.00;0.62;0.00;0.00;0.62;7.30;5.90;;;21.70;29.00;;;;;;2245460;61;20485;-66
2021/11/24 04:59:47;0.00;0.00;0.62;0.00;0.00;0.62;6.73;5.67;;;21.70;29.00;;;;;;2245593;61;20457;-66
2021/11/24 05:02:32;0.00;0.00;0.62;0.00;0.00;0.62;8.70;6.70;;;21.70;29.10;;;;;;2245337;61;20409;-66
2021/11/24 05:05:18;0.00;0.00;0.62;0.00;0.00;0.62;9.30;5.63;;;21.60;29.00;;;;;;2244880;61;20409;-66
2021/11/24 05:08:06;0.00;0.00;0.62;0.00;0.00;0.62;7.57;5.07;;;21.60;29.00;;;;;;2245565;61;20386;-66
2021/11/24 05:10:51;0.00;0.00;0.62;0.00;0.00;0.62;5.53;4.87;;;21.60;29.00;;;;;;2245395;61;20437;-66
2021/11/24 05:13:38;0.00;0.00;0.62;0.00;0.00;0.62;7.53;4.73;;;21.60;29.00;;;;;;2245526;61;20442;-66
2021/11/24 05:16:23;0.00;0.00;0.62;0.00;0.00;0.62;7.50;5.10;;;21.50;29.00;;;;;;2245601;61;20390;-66
2021/11/24 05:19:12;0.00;0.00;0.62;0.00;0.00;0.62;5.10;4.50;;;21.50;29.00;;;;;;2245025;61;20384;-66
2021/11/24 05:21:59;0.00;0.00;0.62;0.00;0.00;0.62;5.90;4.70;;;21.50;29.00;;;;;;2245632;61;20506;-65
2021/11/24 05:24:45;0.00;0.00;0.62;0.00;0.00;0.62;7.07;5.30;;;21.50;29.00;;;;;;2245593;61;20393;-66
2021/11/24 05:27:32;0.00;0.00;0.62;0.00;0.00;0.62;7.07;4.90;;;21.50;29.00;;;;;;2244904;61;20360;-66
2021/11/24 05:30:16;0.00;0.00;0.62;0.00;0.00;0.62;5.50;3.97;;;21.50;29.10;;;;;;2245340;61;20433;-67
2021/11/24 05:33:01;0.00;0.00;0.62;0.00;0.00;0.62;7.63;5.37;;;21.50;29.10;;;;;;2245436;61;20385;-65
2021/11/24 05:35:46;0.00;0.00;0.62;0.00;0.00;0.62;6.33;4.77;;;21.50;29.10;;;;;;2245603;61;20366;-67
2021/11/24 05:38:31;0.00;0.00;0.62;0.00;0.00;0.62;5.57;4.30;;;21.40;29.00;;;;;;2245428;61;20693;-66
2021/11/24 05:41:17;0.00;0.00;0.62;0.00;0.00;0.62;5.60;4.83;;;21.50;29.10;;;;;;2245016;61;20393;-67
2021/11/24 05:44:15;0.00;0.00;0.62;0.00;0.00;0.62;5.47;4.20;;;21.40;29.00;;;;;;2245735;61;20366;-67
2021/11/24 05:47:08;0.00;0.00;0.62;0.00;0.00;0.62;5.27;4.40;;;21.40;29.00;;;;;;2245216;61;20589;-66
2021/11/24 05:49:53;0.00;0.00;0.62;0.00;0.00;0.62;4.63;3.50;;;21.40;29.00;;;;;;2244827;61;20398;-66
2021/11/24 05:52:37;0.00;0.00;0.62;0.00;0.00;0.62;5.00;4.03;;;21.40;29.00;;;;;;2245503;61;20421;-66
2021/11/24 05:55:24;0.00;0.00;0.62;0.00;0.00;0.62;5.33;4.57;;;21.40;29.00;;;;;;2245178;61;20370;-67
2021/11/24 05:58:11;0.00;0.00;0.62;0.00;0.00;0.62;4.30;3.53;;;21.40;29.00;;;;;;2245284;61;20443;-67
2021/11/24 06:00:55;0.00;0.00;0.62;0.00;0.00;0.62;5.33;4.47;;;21.40;29.00;;;;;;2245405;61;20385;-67
2021/11/24 06:03:41;0.00;0.00;0.62;0.00;0.00;0.62;5.47;4.57;;;21.40;29.10;;;;;;2245218;61;20430;-67
2021/11/24 06:06:26;0.00;0.00;0.62;0.00;0.00;0.62;6.90;4.80;;;21.40;29.10;;;;;;2245489;61;20368;-65
2021/11/24 06:09:11;0.00;0.00;0.62;0.00;0.00;0.62;4.87;4.10;;;21.40;29.10;;;;;;2245485;61;20370;-66
2021/11/24 06:11:55;0.00;0.00;0.62;0.00;0.00;0.62;4.50;3.50;;;21.40;29.60;;;;;;2244810;61;20545;-67
2021/11/24 06:14:43;0.00;0.00;0.62;0.00;0.00;0.62;5.27;3.63;;;21.40;29.10;;;;;;2245268;61;20393;-67
2021/11/24 06:17:28;0.00;0.00;0.62;0.00;0.00;0.62;6.10;4.73;;;21.40;29.10;;;;;;2245478;61;20717;-66
2021/11/24 06:20:15;0.00;0.00;0.62;0.00;0.00;0.62;5.77;4.83;;;21.40;29.10;;;;;;2245168;61;20456;-67
2021/11/24 06:23:00;0.00;0.00;0.62;0.00;0.00;0.62;5.03;4.53;;;21.40;29.10;;;;;;2245328;61;20442;-67
2021/11/24 06:25:46;0.00;0.00;0.62;0.00;0.00;0.62;6.20;4.57;;;21.40;29.10;;;;;;2245229;61;20369;-67
2021/11/24 06:28:30;0.00;0.00;0.62;0.00;0.00;0.62;5.67;4.40;;;21.40;29.10;;;;;;2245286;61;20461;-67
2021/11/24 06:31:17;0.00;0.00;0.62;0.00;0.00;0.62;5.10;4.50;;;21.40;29.10;;;;;;2245382;61;20393;-66
2021/11/24 06:34:02;0.00;0.00;0.62;0.00;0.00;0.62;5.90;4.33;;;21.40;29.10;;;;;;2244660;61;20466;-67
2021/11/24 06:36:47;0.00;0.00;0.62;0.00;0.00;0.62;4.97;3.70;;;21.40;29.10;;;;;;2245415;61;20627;-67
2021/11/24 06:39:32;0.00;0.00;0.62;0.00;0.00;0.62;5.50;4.17;;;21.40;29.60;;;;;;2244892;61;20425;-67
2021/11/24 06:42:17;0.00;0.00;0.62;0.00;0.00;0.62;5.80;4.67;;;21.40;29.10;;;;;;2244838;61;20401;-67
2021/11/24 06:45:03;0.00;0.00;0.62;0.00;0.00;0.62;4.87;3.90;;;21.30;29.00;;;;;;2245455;61;20369;-67
2021/11/24 06:47:50;0.00;0.00;0.62;0.00;0.00;0.62;5.40;4.37;;;21.30;29.10;;;;;;2244450;61;20365;-66
2021/11/24 06:50:35;0.00;0.00;0.62;0.00;0.00;0.62;5.40;3.77;;;21.30;29.10;;;;;;2244674;61;20381;-67
2021/11/24 06:53:19;0.00;0.00;0.62;0.00;0.00;0.62;4.50;4.00;;;21.30;29.00;;;;;;2245790;61;20389;-67
2021/11/24 06:56:04;0.00;0.00;0.62;0.00;0.00;0.62;5.47;4.20;;;21.30;29.10;;;;;;2244536;61;20394;-67
2021/11/24 06:58:49;0.00;0.00;0.62;0.00;0.00;0.62;6.40;4.00;;;21.30;29.10;;;;;;2245737;61;20810;-67
2021/11/24 07:01:35;0.00;0.00;0.62;0.00;0.00;0.62;5.80;4.20;;;21.30;29.10;;;;;;2245581;61;20416;-67
2021/11/24 07:04:21;0.00;0.00;0.62;0.00;0.00;0.62;4.73;3.80;;;21.30;29.10;;;;;;2245193;61;20394;-67
2021/11/24 07:07:06;0.00;0.00;0.62;0.00;0.00;0.62;6.70;4.47;;;21.30;29.10;;;;;;2245788;61;20369;-67
2021/11/24 07:09:51;0.00;0.00;0.62;0.00;0.00;0.62;4.80;3.87;;;21.30;29.10;;;;;;2245440;61;20397;-67
2021/11/24 07:12:36;0.00;0.00;0.62;0.00;0.00;0.62;5.27;4.10;;;21.30;29.10;;;;;;2246173;61;20356;-67
2021/11/24 07:15:21;0.00;0.00;0.62;0.00;0.00;0.62;5.47;4.20;;;21.30;29.10;;;;;;2246097;61;20386;-67
2021/11/24 07:18:06;0.00;0.00;0.62;0.00;0.00;0.62;7.30;3.73;;;21.30;29.10;;;;;;2245471;61;20661;-67
2021/11/24 07:20:52;0.00;0.00;0.62;0.00;0.00;0.62;4.60;3.70;;;21.30;29.10;;;;;;2246389;61;20465;-67
2021/11/24 07:23:37;0.00;0.00;0.62;0.00;0.00;0.62;4.87;4.00;;;21.30;29.10;;;;;;2246297;61;20489;-67
2021/11/24 07:26:22;0.00;0.00;0.62;0.00;0.00;0.62;4.60;3.77;;;21.30;29.10;;;;;;2245721;61;20753;-67
2021/11/24 07:29:07;0.00;0.00;0.62;0.00;0.00;0.62;5.47;3.80;;;21.30;29.10;;;;;;2246287;61;20435;-67
2021/11/24 07:31:52;0.00;0.00;0.62;0.00;0.00;0.62;6.30;4.50;;;21.30;29.10;;;;;;2245419;61;20389;-65
2021/11/24 07:34:37;0.00;0.00;0.62;0.00;0.00;0.62;5.70;4.57;;;21.30;29.10;;;;;;2245859;61;20369;-65
2021/11/24 07:37:24;0.00;0.00;0.62;0.00;0.00;0.62;6.30;4.17;;;21.30;29.10;;;;;;2246221;61;20393;-66
2021/11/24 07:40:11;0.00;0.00;0.62;0.00;0.00;0.62;5.23;4.23;;;21.30;29.10;;;;;;2245416;61;20753;-65
2021/11/24 07:42:56;0.00;0.00;0.62;0.00;0.00;0.62;4.90;4.27;;;21.30;29.10;;;;;;2246337;61;20453;-65
2021/11/24 07:45:41;0.00;0.00;0.62;0.00;0.00;0.62;5.80;4.13;;;21.30;29.10;;;;;;2245971;61;20357;-70
2021/11/24 07:48:26;0.00;0.00;0.62;0.00;0.00;0.62;4.63;3.67;;;21.30;29.10;;;;;;2245436;61;20489;-63
2021/11/24 07:51:16;0.00;0.00;0.62;0.00;0.00;0.62;4.60;3.63;;;21.20;29.10;;;;;;2246293;61;20409;-69
2021/11/24 07:54:03;0.00;0.00;0.62;0.00;0.00;0.62;7.00;5.10;;;21.20;29.10;;;;;;2245432;61;20772;-71
2021/11/24 07:56:47;0.00;0.00;0.62;0.00;0.00;0.62;5.40;4.03;;;21.30;29.20;;;;;;2245433;61;21071;-73
2021/11/24 07:59:33;0.00;0.00;0.62;0.00;0.00;0.62;4.30;3.70;;;21.20;29.20;;;;;;2244480;61;20440;-72
2021/11/24 08:02:19;0.00;0.00;0.62;0.00;0.00;0.62;4.77;4.07;;;21.20;29.20;;;;;;2245092;61;20369;-70
2021/11/24 08:05:06;0.00;0.00;0.62;0.00;0.00;0.62;4.80;3.50;;;21.20;29.20;;;;;;2245836;61;20396;-71
2021/11/24 08:07:51;0.00;0.00;0.62;0.00;0.00;0.62;5.30;3.90;;;21.20;29.20;;;;;;2245966;61;20580;-72
2021/11/24 08:10:37;0.00;0.00;0.62;0.00;0.00;0.62;6.00;3.17;;;21.20;29.20;;;;;;2245462;61;20381;-70
2021/11/24 08:13:22;0.00;0.00;0.62;0.00;0.00;0.62;5.60;4.40;;;21.20;29.30;;;;;;2246021;61;20358;-70
2021/11/24 08:16:07;0.00;0.00;0.62;0.00;0.00;0.62;4.10;3.40;;;21.20;29.30;;;;;;2245347;61;20835;-65
2021/11/24 08:18:52;0.00;0.00;0.62;0.00;0.00;0.62;5.00;3.63;;;21.20;29.30;;;;;;2245013;61;20389;-64
2021/11/24 08:21:40;0.00;0.00;0.62;0.00;0.00;0.62;4.77;4.27;;;21.30;29.30;;;;;;2245497;61;20394;-70
2021/11/24 08:24:25;0.00;0.00;0.62;0.00;0.00;0.62;4.23;3.40;;;21.20;29.20;;;;;;2245466;61;20733;-65
2021/11/24 08:27:11;0.00;0.00;0.62;0.00;0.00;0.62;5.80;4.37;;;21.20;29.30;;;;;;2245962;61;20408;-71
2021/11/24 08:29:56;0.00;0.00;0.62;0.00;0.00;0.62;5.40;4.00;;;21.20;29.20;;;;;;2245986;61;20377;-63
2021/11/24 08:32:42;0.00;0.00;0.62;0.00;0.00;0.62;4.73;4.03;;;21.20;29.20;;;;;;2245164;61;20717;-70
2021/11/24 08:35:27;0.00;0.00;0.62;0.00;0.00;0.62;5.70;4.57;;;21.30;29.30;;;;;;2245949;61;20369;-65
2021/11/24 08:38:12;0.00;0.00;0.62;0.00;0.00;0.62;4.57;3.80;;;21.20;29.20;;;;;;2245413;61;20426;-67
2021/11/24 08:40:57;0.00;0.00;0.62;0.00;0.00;0.62;6.63;3.83;;;21.30;29.30;;;;;;2245697;61;20410;-67
2021/11/24 08:43:46;0.00;0.00;0.62;0.00;0.00;0.62;5.93;3.40;;;21.30;29.30;;;;;;2246262;61;20358;-67
2021/11/24 08:46:34;0.00;0.00;0.62;0.00;0.00;0.62;5.30;3.87;;;21.20;29.20;;;;;;2245478;61;20366;-70
2021/11/24 08:49:18;0.00;0.00;0.62;0.00;0.00;0.62;3.80;3.30;;;21.20;29.20;;;;;;2245686;61;20370;-67
2021/11/24 08:52:04;0.00;0.00;0.62;0.00;0.00;0.62;4.50;3.80;;;21.20;29.30;;;;;;2246216;61;20426;-71
2021/11/24 08:54:49;0.00;0.00;0.62;0.00;0.00;0.62;4.00;3.37;;;21.20;29.30;;;;;;2245172;61;20364;-68
2021/11/24 08:57:37;0.00;0.00;0.62;0.00;0.00;0.62;4.20;3.73;;;21.20;29.30;;;;;;2245595;61;20367;-68
2021/11/24 09:00:24;0.00;0.00;0.62;0.00;0.00;0.62;5.40;4.20;;;21.20;29.30;;;;;;2245368;61;20390;-66
2021/11/24 09:03:10;0.00;0.00;0.62;0.00;0.00;0.62;4.20;3.57;;;21.20;29.30;;;;;;2245631;61;20361;-68
2021/11/24 09:05:55;0.00;0.00;0.62;0.00;0.00;0.62;4.20;3.50;;;21.20;29.30;;;;;;2246025;61;20749;-71
2021/11/24 09:08:42;0.00;0.00;0.62;0.00;0.00;0.62;4.73;3.40;;;21.30;29.40;;;;;;2244880;61;20385;-69
2021/11/24 09:11:27;0.00;0.00;0.62;0.00;0.00;0.62;5.37;4.03;;;21.30;29.40;;;;;;2244971;61;20600;-71
2021/11/24 09:14:12;0.00;0.00;0.62;0.00;0.00;0.62;5.00;3.37;;;21.20;29.40;;;;;;2245868;61;20844;-69
2021/11/24 09:16:59;0.00;0.00;0.62;0.00;0.00;0.62;4.63;3.90;;;21.20;29.40;;;;;;2244853;61;20417;-71
2021/11/24 09:19:46;0.00;0.00;0.62;0.00;0.00;0.62;4.83;3.80;;;21.20;29.40;;;;;;2245287;61;20448;-70
2021/11/24 09:22:31;0.00;0.00;0.62;0.00;0.00;0.62;4.67;4.07;;;21.30;29.40;;;;;;2245551;61;20361;-63
2021/11/24 09:25:21;0.00;0.00;0.62;0.00;0.00;0.62;4.10;3.07;;;21.20;29.40;;;;;;2244934;61;20360;-70
2021/11/24 09:28:09;0.00;0.00;0.62;0.00;0.00;0.62;4.27;3.40;;;21.30;29.40;;;;;;2245819;61;20362;-67
2021/11/24 09:30:54;0.00;0.00;0.62;0.00;0.00;0.62;5.17;2.60;;;21.30;29.40;;;;;;2244935;61;20600;-66
2021/11/24 09:33:41;0.00;0.00;0.62;0.00;0.00;0.62;3.03;2.53;;;21.30;29.40;;;;;;2244899;61;20478;-66
2021/11/24 09:36:26;0.00;0.00;0.62;0.00;0.00;0.62;3.93;3.13;;;21.30;29.40;;;;;;2245415;61;20377;-63
2021/11/24 09:39:12;0.00;0.00;0.62;0.00;0.00;0.62;4.47;3.10;;;21.30;29.50;;;;;;2244431;61;20389;-69
2021/11/24 09:42:04;0.00;0.00;0.62;0.00;0.00;0.62;3.70;2.60;;;21.30;29.50;;;;;;2245288;61;20416;-66
2021/11/24 09:44:49;0.00;0.00;0.62;0.00;0.00;0.62;2.87;2.43;;;21.30;29.50;;;;;;2245235;61;20717;-63
2021/11/24 09:47:35;0.00;0.00;0.62;0.00;0.00;0.62;3.43;2.23;;;21.30;29.50;;;;;;2245351;61;20728;-65
2021/11/24 09:50:25;0.00;0.00;0.62;0.00;0.00;0.62;3.67;2.47;;;21.40;29.60;;;;;;2245980;61;20370;-67
2021/11/24 09:53:12;0.00;0.00;0.62;0.00;0.00;0.62;2.67;1.80;;;21.40;29.60;;;;;;2245407;61;20369;-67
2021/11/24 09:55:56;0.00;0.00;0.62;0.00;0.00;0.62;3.13;2.17;;;21.40;29.60;;;;;;2242900;61;20434;-62
2021/11/24 09:58:42;0.00;0.00;0.62;0.00;0.00;0.62;2.60;2.07;;;21.40;29.60;;;;;;2246020;61;20365;-68
2021/11/24 10:01:27;0.00;0.00;0.62;0.00;0.00;0.62;2.30;1.83;;;21.50;29.70;;;;;;2245157;61;20381;-66
2021/11/24 10:04:12;0.00;0.00;0.62;0.00;0.00;0.62;2.47;2.07;;;21.40;29.60;;;;;;2246151;61;20361;-62
2021/11/24 10:07:02;0.00;0.00;0.62;0.00;0.00;0.62;2.83;2.50;;;21.50;29.70;;;;;;2245357;61;20573;-66
2021/11/24 10:09:48;0.00;0.00;0.62;0.00;0.00;0.62;3.10;2.60;;;21.50;29.70;;;;;;2245216;61;20366;-66
2021/11/24 10:12:33;0.00;0.00;0.62;0.00;0.00;0.62;3.50;2.73;;;21.50;29.70;;;;;;2246180;61;20393;-68
2021/11/24 10:15:41;0.00;0.00;0.62;0.00;0.00;0.62;3.30;2.90;;;21.50;29.70;;;;;;2242353;61;20545;-67
2021/11/24 10:18:29;0.00;0.00;0.62;0.00;0.00;0.62;6.00;2.97;;;21.50;29.70;;;;;;2246016;61;20822;-63
2021/11/24 10:21:17;0.00;0.00;0.62;0.00;0.00;0.62;3.53;2.90;;;21.50;29.70;;;;;;2245985;61;20401;-67
2021/11/24 10:24:06;0.00;0.00;0.62;0.00;0.00;0.62;2.50;2.10;;;21.60;29.70;;;;;;2245251;61;20397;-67
2021/11/24 10:26:52;0.00;0.00;0.62;0.00;0.00;0.62;2.87;2.57;;;21.60;29.70;;;;;;2245716;61;20366;-69
2021/11/24 10:29:40;0.00;0.00;0.62;0.00;0.00;0.62;2.37;2.17;;;21.60;29.70;;;;;;2245255;61;20434;-71
2021/11/24 10:32:27;0.00;0.00;0.62;0.00;0.00;0.62;2.70;2.30;;;21.60;29.70;;;;;;2245694;61;20726;-66
2021/11/24 10:35:13;0.00;0.00;0.62;0.00;0.00;0.62;3.83;2.50;;;21.60;29.80;;;;;;2245409;61;20378;-68
2021/11/24 10:38:15;0.00;0.00;0.62;0.00;0.00;0.62;2.93;2.10;;;21.60;29.70;;;;;;2245244;61;20365;-67
2021/11/24 10:41:02;0.00;0.00;0.62;0.00;0.00;0.62;3.10;2.07;;;21.70;29.80;;;;;;2245516;61;20420;-71
2021/11/24 10:43:47;0.00;0.00;0.62;0.00;0.00;0.62;4.10;2.20;;;21.70;29.80;;;;;;2245503;61;20697;-72
2021/11/24 10:46:35;0.00;0.00;0.62;0.00;0.00;0.62;2.83;2.13;;;21.70;29.80;;;;;;2246101;61;20357;-72
2021/11/24 10:49:29;0.00;0.00;0.62;0.00;0.00;0.62;3.50;2.47;;;21.70;29.80;;;;;;2246503;61;20406;-68
2021/11/24 10:52:22;0.00;0.00;0.62;0.00;0.00;0.62;3.33;2.80;;;21.70;29.80;;;;;;2245768;61;20737;-70
2021/11/24 10:55:11;0.00;0.00;0.62;0.00;0.00;0.62;3.60;2.40;;;21.70;29.80;;;;;;2246054;61;20725;-63